sensor_id;sensor_type;location;lat;lon;timestamp;P1;durP1;ratioP1;P2;durP2;ratioP2
51985;SDS011;38002;53.296;6.600;2024-03-08T00:02:58;40.47;;;20.03;;
51985;SDS011;38002;53.296;6.600;2024-03-08T00:08:01;42.03;;;20.33;;
51985;SDS011;38002;53.296;6.600;2024-03-08T00:13:01;43.17;;;19.33;;
51985;SDS011;38002;53.296;6.600;2024-03-08T00:18:04;42.38;;;19.58;;
51985;SDS011;38002;53.296;6.600;2024-03-08T00:23:04;47.60;;;21.13;;
51985;SDS011;38002;53.296;6.600;2024-03-08T00:28:05;39.90;;;20.47;;
51985;SDS011;38002;53.296;6.600;2024-03-08T00:33:06;39.87;;;19.97;;
51985;SDS011;38002;53.296;6.600;2024-03-08T00:38:06;42.30;;;20.43;;
51985;SDS011;38002;53.296;6.600;2024-03-08T00:43:07;47.60;;;21.17;;
51985;SDS011;38002;53.296;6.600;2024-03-08T00:48:08;43.20;;;20.97;;
51985;SDS011;38002;53.296;6.600;2024-03-08T00:53:09;44.53;;;20.20;;
51985;SDS011;38002;53.296;6.600;2024-03-08T00:58:11;38.42;;;20.25;;
51985;SDS011;38002;53.296;6.600;2024-03-08T01:03:12;45.23;;;20.73;;
51985;SDS011;38002;53.296;6.600;2024-03-08T01:08:12;44.87;;;21.70;;
51985;SDS011;38002;53.296;6.600;2024-03-08T01:13:13;42.27;;;19.80;;
51985;SDS011;38002;53.296;6.600;2024-03-08T01:18:13;41.17;;;18.83;;
51985;SDS011;38002;53.296;6.600;2024-03-08T01:23:14;40.63;;;18.27;;
51985;SDS011;38002;53.296;6.600;2024-03-08T01:28:14;40.80;;;19.53;;
51985;SDS011;38002;53.296;6.600;2024-03-08T01:33:15;45.53;;;21.13;;
51985;SDS011;38002;53.296;6.600;2024-03-08T01:38:15;44.53;;;19.47;;
51985;SDS011;38002;53.296;6.600;2024-03-08T01:48:20;38.05;;;18.40;;
51985;SDS011;38002;53.296;6.600;2024-03-08T01:53:24;37.10;;;18.58;;
51985;SDS011;38002;53.296;6.600;2024-03-08T01:58:27;40.67;;;17.35;;
51985;SDS011;38002;53.296;6.600;2024-03-08T02:03:28;37.60;;;18.35;;
51985;SDS011;38002;53.296;6.600;2024-03-08T02:08:31;37.38;;;19.45;;
51985;SDS011;38002;53.296;6.600;2024-03-08T02:13:32;35.77;;;17.43;;
51985;SDS011;38002;53.296;6.600;2024-03-08T02:23:39;32.72;;;16.00;;
51985;SDS011;38002;53.296;6.600;2024-03-08T02:28:40;41.70;;;17.47;;
51985;SDS011;38002;53.296;6.600;2024-03-08T02:33:43;32.85;;;19.23;;
51985;SDS011;38002;53.296;6.600;2024-03-08T02:38:43;35.33;;;16.70;;
51985;SDS011;38002;53.296;6.600;2024-03-08T02:43:44;35.27;;;17.77;;
51985;SDS011;38002;53.296;6.600;2024-03-08T02:48:45;40.70;;;17.17;;
51985;SDS011;38002;53.296;6.600;2024-03-08T02:53:46;34.75;;;18.25;;
51985;SDS011;38002;53.296;6.600;2024-03-08T02:58:48;31.98;;;16.48;;
51985;SDS011;38002;53.296;6.600;2024-03-08T03:03:49;35.00;;;17.20;;
51985;SDS011;38002;53.296;6.600;2024-03-08T03:08:50;37.43;;;17.50;;
51985;SDS011;38002;53.296;6.600;2024-03-08T03:13:51;35.00;;;16.67;;
51985;SDS011;38002;53.296;6.600;2024-03-08T03:18:51;37.63;;;18.40;;
51985;SDS011;38002;53.296;6.600;2024-03-08T03:23:52;39.33;;;17.83;;
51985;SDS011;38002;53.296;6.600;2024-03-08T03:28:52;35.13;;;16.00;;
51985;SDS011;38002;53.296;6.600;2024-03-08T03:33:53;33.73;;;16.23;;
51985;SDS011;38002;53.296;6.600;2024-03-08T03:38:54;31.90;;;16.37;;
51985;SDS011;38002;53.296;6.600;2024-03-08T03:44:05;30.55;;;15.60;;
51985;SDS011;38002;53.296;6.600;2024-03-08T03:49:08;34.58;;;16.60;;
51985;SDS011;38002;53.296;6.600;2024-03-08T03:54:09;32.60;;;16.33;;
51985;SDS011;38002;53.296;6.600;2024-03-08T03:59:11;32.20;;;16.13;;
51985;SDS011;38002;53.296;6.600;2024-03-08T04:04:12;29.07;;;15.10;;
51985;SDS011;38002;53.296;6.600;2024-03-08T04:09:12;30.90;;;14.77;;
51985;SDS011;38002;53.296;6.600;2024-03-08T04:14:13;36.33;;;15.97;;
51985;SDS011;38002;53.296;6.600;2024-03-08T04:19:13;37.87;;;16.87;;
51985;SDS011;38002;53.296;6.600;2024-03-08T04:24:14;36.43;;;15.77;;
51985;SDS011;38002;53.296;6.600;2024-03-08T04:29:15;36.33;;;16.43;;
51985;SDS011;38002;53.296;6.600;2024-03-08T04:34:17;30.10;;;15.05;;
51985;SDS011;38002;53.296;6.600;2024-03-08T04:39:17;34.17;;;16.03;;
51985;SDS011;38002;53.296;6.600;2024-03-08T04:44:18;39.00;;;16.53;;
51985;SDS011;38002;53.296;6.600;2024-03-08T04:49:19;31.33;;;16.00;;
51985;SDS011;38002;53.296;6.600;2024-03-08T04:54:21;34.10;;;16.50;;
51985;SDS011;38002;53.296;6.600;2024-03-08T04:59:22;28.23;;;14.70;;
51985;SDS011;38002;53.296;6.600;2024-03-08T05:04:22;30.57;;;15.27;;
51985;SDS011;38002;53.296;6.600;2024-03-08T05:09:23;29.67;;;14.90;;
51985;SDS011;38002;53.296;6.600;2024-03-08T05:14:23;33.23;;;15.90;;
51985;SDS011;38002;53.296;6.600;2024-03-08T05:19:25;25.67;;;13.95;;
51985;SDS011;38002;53.296;6.600;2024-03-08T05:24:25;32.47;;;15.53;;
51985;SDS011;38002;53.296;6.600;2024-03-08T05:29:26;29.17;;;14.87;;
51985;SDS011;38002;53.296;6.600;2024-03-08T05:34:26;25.30;;;13.87;;
51985;SDS011;38002;53.296;6.600;2024-03-08T05:39:29;26.08;;;15.00;;
51985;SDS011;38002;53.296;6.600;2024-03-08T05:44:29;28.53;;;13.90;;
51985;SDS011;38002;53.296;6.600;2024-03-08T05:49:31;29.15;;;14.00;;
51985;SDS011;38002;53.296;6.600;2024-03-08T05:54:31;35.43;;;15.73;;
51985;SDS011;38002;53.296;6.600;2024-03-08T05:59:33;28.45;;;14.55;;
51985;SDS011;38002;53.296;6.600;2024-03-08T06:04:33;34.00;;;15.23;;
51985;SDS011;38002;53.296;6.600;2024-03-08T06:09:34;37.00;;;15.70;;
51985;SDS011;38002;53.296;6.600;2024-03-08T06:14:34;34.07;;;14.97;;
51985;SDS011;38002;53.296;6.600;2024-03-08T06:19:35;27.80;;;15.00;;
51985;SDS011;38002;53.296;6.600;2024-03-08T06:24:36;24.83;;;14.30;;
51985;SDS011;38002;53.296;6.600;2024-03-08T06:34:39;31.60;;;15.15;;
51985;SDS011;38002;53.296;6.600;2024-03-08T06:39:39;33.07;;;15.27;;
51985;SDS011;38002;53.296;6.600;2024-03-08T06:44:40;35.57;;;14.97;;
51985;SDS011;38002;53.296;6.600;2024-03-08T06:49:48;33.83;;;15.10;;
51985;SDS011;38002;53.296;6.600;2024-03-08T06:54:49;29.57;;;14.20;;
51985;SDS011;38002;53.296;6.600;2024-03-08T06:59:52;30.88;;;15.07;;
51985;SDS011;38002;53.296;6.600;2024-03-08T07:04:54;32.92;;;16.00;;
51985;SDS011;38002;53.296;6.600;2024-03-08T07:09:54;24.67;;;14.30;;
51985;SDS011;38002;53.296;6.600;2024-03-08T07:19:57;30.17;;;15.05;;
51985;SDS011;38002;53.296;6.600;2024-03-08T07:24:59;32.63;;;15.05;;
51985;SDS011;38002;53.296;6.600;2024-03-08T07:30:18;35.03;;;15.38;;
51985;SDS011;38002;53.296;6.600;2024-03-08T07:35:46;29.33;;;14.75;;
51985;SDS011;38002;53.296;6.600;2024-03-08T07:40:47;31.87;;;15.53;;
51985;SDS011;38002;53.296;6.600;2024-03-08T07:45:48;33.73;;;15.10;;
51985;SDS011;38002;53.296;6.600;2024-03-08T07:50:48;33.00;;;16.20;;
51985;SDS011;38002;53.296;6.600;2024-03-08T07:55:50;30.10;;;16.63;;
51985;SDS011;38002;53.296;6.600;2024-03-08T08:00:50;36.73;;;17.13;;
51985;SDS011;38002;53.296;6.600;2024-03-08T08:05:50;31.83;;;16.67;;
51985;SDS011;38002;53.296;6.600;2024-03-08T08:10:51;35.90;;;17.67;;
51985;SDS011;38002;53.296;6.600;2024-03-08T08:15:52;32.50;;;17.73;;
51985;SDS011;38002;53.296;6.600;2024-03-08T08:20:52;33.60;;;17.00;;
51985;SDS011;38002;53.296;6.600;2024-03-08T08:25:53;28.57;;;15.73;;
51985;SDS011;38002;53.296;6.600;2024-03-08T08:30:53;32.30;;;17.70;;
51985;SDS011;38002;53.296;6.600;2024-03-08T08:35:54;38.30;;;18.50;;
51985;SDS011;38002;53.296;6.600;2024-03-08T08:40:54;32.77;;;18.20;;
51985;SDS011;38002;53.296;6.600;2024-03-08T08:45:56;32.47;;;18.15;;
51985;SDS011;38002;53.296;6.600;2024-03-08T08:50:56;27.97;;;15.30;;
51985;SDS011;38002;53.296;6.600;2024-03-08T08:55:57;29.20;;;15.87;;
51985;SDS011;38002;53.296;6.600;2024-03-08T09:00:57;31.13;;;16.47;;
51985;SDS011;38002;53.296;6.600;2024-03-08T09:05:59;29.95;;;16.15;;
51985;SDS011;38002;53.296;6.600;2024-03-08T09:11:00;28.87;;;15.60;;
51985;SDS011;38002;53.296;6.600;2024-03-08T09:16:01;32.03;;;16.37;;
51985;SDS011;38002;53.296;6.600;2024-03-08T09:21:03;32.17;;;15.77;;
51985;SDS011;38002;53.296;6.600;2024-03-08T09:26:05;29.38;;;17.75;;
51985;SDS011;38002;53.296;6.600;2024-03-08T09:31:06;27.63;;;16.23;;
51985;SDS011;38002;53.296;6.600;2024-03-08T09:36:07;31.58;;;17.40;;
51985;SDS011;38002;53.296;6.600;2024-03-08T09:41:08;35.87;;;17.87;;
51985;SDS011;38002;53.296;6.600;2024-03-08T09:46:10;29.67;;;17.35;;
51985;SDS011;38002;53.296;6.600;2024-03-08T09:51:12;35.53;;;17.60;;
51985;SDS011;38002;53.296;6.600;2024-03-08T09:56:15;29.10;;;17.05;;
51985;SDS011;38002;53.296;6.600;2024-03-08T10:01:15;29.87;;;18.17;;
51985;SDS011;38002;53.296;6.600;2024-03-08T10:06:16;34.50;;;18.33;;
51985;SDS011;38002;53.296;6.600;2024-03-08T10:11:22;28.25;;;16.92;;
51985;SDS011;38002;53.296;6.600;2024-03-08T10:16:25;33.67;;;17.00;;
51985;SDS011;38002;53.296;6.600;2024-03-08T10:21:27;27.52;;;17.40;;
51985;SDS011;38002;53.296;6.600;2024-03-08T10:26:28;36.50;;;18.00;;
51985;SDS011;38002;53.296;6.600;2024-03-08T10:31:28;28.13;;;16.63;;
51985;SDS011;38002;53.296;6.600;2024-03-08T10:36:29;32.20;;;18.00;;
51985;SDS011;38002;53.296;6.600;2024-03-08T10:41:31;28.60;;;17.50;;
51985;SDS011;38002;53.296;6.600;2024-03-08T10:51:51;28.05;;;17.20;;
51985;SDS011;38002;53.296;6.600;2024-03-08T10:56:53;32.50;;;17.45;;
51985;SDS011;38002;53.296;6.600;2024-03-08T11:01:55;28.67;;;16.88;;
51985;SDS011;38002;53.296;6.600;2024-03-08T11:07:02;32.80;;;18.38;;
51985;SDS011;38002;53.296;6.600;2024-03-08T11:12:19;31.55;;;17.83;;
51985;SDS011;38002;53.296;6.600;2024-03-08T11:22:38;33.08;;;18.45;;
51985;SDS011;38002;53.296;6.600;2024-03-08T11:27:48;27.08;;;18.00;;
51985;SDS011;38002;53.296;6.600;2024-03-08T11:32:53;25.80;;;16.92;;
51985;SDS011;38002;53.296;6.600;2024-03-08T11:37:54;31.50;;;18.10;;
51985;SDS011;38002;53.296;6.600;2024-03-08T11:42:54;27.20;;;18.00;;
51985;SDS011;38002;53.296;6.600;2024-03-08T11:47:55;28.23;;;18.10;;
51985;SDS011;38002;53.296;6.600;2024-03-08T11:53:00;25.23;;;17.23;;
51985;SDS011;38002;53.296;6.600;2024-03-08T11:58:05;25.55;;;17.48;;
51985;SDS011;38002;53.296;6.600;2024-03-08T12:03:08;28.67;;;17.40;;
51985;SDS011;38002;53.296;6.600;2024-03-08T12:08:12;25.20;;;16.63;;
51985;SDS011;38002;53.296;6.600;2024-03-08T12:13:13;29.03;;;17.13;;
51985;SDS011;38002;53.296;6.600;2024-03-08T12:18:14;26.45;;;16.65;;
51985;SDS011;38002;53.296;6.600;2024-03-08T12:23:15;27.83;;;16.67;;
51985;SDS011;38002;53.296;6.600;2024-03-08T12:28:19;28.20;;;16.60;;
51985;SDS011;38002;53.296;6.600;2024-03-08T12:33:19;25.52;;;15.95;;
51985;SDS011;38002;53.296;6.600;2024-03-08T12:38:20;28.40;;;16.33;;
51985;SDS011;38002;53.296;6.600;2024-03-08T12:43:27;28.08;;;16.85;;
51985;SDS011;38002;53.296;6.600;2024-03-08T12:48:33;26.73;;;16.67;;
51985;SDS011;38002;53.296;6.600;2024-03-08T12:53:35;27.38;;;17.42;;
51985;SDS011;38002;53.296;6.600;2024-03-08T12:58:36;28.23;;;16.73;;
51985;SDS011;38002;53.296;6.600;2024-03-08T13:03:37;28.60;;;16.20;;
51985;SDS011;38002;53.296;6.600;2024-03-08T13:08:37;21.13;;;14.63;;
51985;SDS011;38002;53.296;6.600;2024-03-08T13:13:41;22.65;;;14.35;;
51985;SDS011;38002;53.296;6.600;2024-03-08T13:18:42;20.73;;;15.43;;
51985;SDS011;38002;53.296;6.600;2024-03-08T13:23:43;22.13;;;14.13;;
51985;SDS011;38002;53.296;6.600;2024-03-08T13:28:46;23.05;;;14.82;;
51985;SDS011;38002;53.296;6.600;2024-03-08T13:33:53;21.35;;;15.30;;
51985;SDS011;38002;53.296;6.600;2024-03-08T13:38:58;24.70;;;14.52;;
51985;SDS011;38002;53.296;6.600;2024-03-08T13:43:59;25.13;;;16.33;;
51985;SDS011;38002;53.296;6.600;2024-03-08T13:49:03;22.00;;;13.83;;
51985;SDS011;38002;53.296;6.600;2024-03-08T13:54:09;18.65;;;13.40;;
51985;SDS011;38002;53.296;6.600;2024-03-08T13:59:19;20.90;;;15.68;;
51985;SDS011;38002;53.296;6.600;2024-03-08T14:04:22;20.85;;;14.20;;
51985;SDS011;38002;53.296;6.600;2024-03-08T14:09:24;22.40;;;15.00;;
51985;SDS011;38002;53.296;6.600;2024-03-08T14:14:24;22.50;;;14.23;;
51985;SDS011;38002;53.296;6.600;2024-03-08T14:19:25;22.30;;;14.80;;
51985;SDS011;38002;53.296;6.600;2024-03-08T14:24:25;30.20;;;20.43;;
51985;SDS011;38002;53.296;6.600;2024-03-08T14:29:26;23.03;;;14.23;;
51985;SDS011;38002;53.296;6.600;2024-03-08T14:34:32;21.13;;;14.68;;
51985;SDS011;38002;53.296;6.600;2024-03-08T14:39:34;19.95;;;13.70;;
51985;SDS011;38002;53.296;6.600;2024-03-08T14:44:35;21.10;;;14.47;;
51985;SDS011;38002;53.296;6.600;2024-03-08T14:49:38;23.33;;;14.15;;
51985;SDS011;38002;53.296;6.600;2024-03-08T14:59:40;22.63;;;14.70;;
51985;SDS011;38002;53.296;6.600;2024-03-08T15:04:45;27.20;;;15.05;;
51985;SDS011;38002;53.296;6.600;2024-03-08T15:09:52;23.70;;;15.25;;
51985;SDS011;38002;53.296;6.600;2024-03-08T15:14:56;24.90;;;14.98;;
51985;SDS011;38002;53.296;6.600;2024-03-08T15:19:56;23.27;;;14.67;;
51985;SDS011;38002;53.296;6.600;2024-03-08T15:24:57;29.13;;;14.53;;
51985;SDS011;38002;53.296;6.600;2024-03-08T15:29:58;26.58;;;15.43;;
51985;SDS011;38002;53.296;6.600;2024-03-08T15:34:59;24.00;;;15.43;;
51985;SDS011;38002;53.296;6.600;2024-03-08T15:40:00;22.40;;;14.43;;
51985;SDS011;38002;53.296;6.600;2024-03-08T15:45:06;23.42;;;14.95;;
51985;SDS011;38002;53.296;6.600;2024-03-08T15:50:09;27.20;;;14.80;;
51985;SDS011;38002;53.296;6.600;2024-03-08T15:55:15;25.63;;;15.07;;
51985;SDS011;38002;53.296;6.600;2024-03-08T16:00:27;23.58;;;15.27;;
51985;SDS011;38002;53.296;6.600;2024-03-08T16:05:35;26.40;;;16.25;;
51985;SDS011;38002;53.296;6.600;2024-03-08T16:10:36;24.77;;;14.83;;
51985;SDS011;38002;53.296;6.600;2024-03-08T16:15:37;26.40;;;14.73;;
51985;SDS011;38002;53.296;6.600;2024-03-08T16:20:42;30.92;;;15.77;;
51985;SDS011;38002;53.296;6.600;2024-03-08T16:25:47;26.42;;;15.32;;
51985;SDS011;38002;53.296;6.600;2024-03-08T16:30:47;25.27;;;14.90;;
51985;SDS011;38002;53.296;6.600;2024-03-08T16:35:49;24.40;;;14.73;;
51985;SDS011;38002;53.296;6.600;2024-03-08T16:40:50;24.52;;;14.23;;
51985;SDS011;38002;53.296;6.600;2024-03-08T16:45:54;27.80;;;13.30;;
51985;SDS011;38002;53.296;6.600;2024-03-08T16:50:56;23.33;;;14.33;;
51985;SDS011;38002;53.296;6.600;2024-03-08T16:55:56;24.57;;;13.83;;
51985;SDS011;38002;53.296;6.600;2024-03-08T17:00:57;25.33;;;15.02;;
51985;SDS011;38002;53.296;6.600;2024-03-08T17:05:58;28.00;;;15.73;;
51985;SDS011;38002;53.296;6.600;2024-03-08T17:10:58;23.97;;;14.60;;
51985;SDS011;38002;53.296;6.600;2024-03-08T17:15:59;25.07;;;14.60;;
51985;SDS011;38002;53.296;6.600;2024-03-08T17:21:00;30.97;;;14.50;;
51985;SDS011;38002;53.296;6.600;2024-03-08T17:26:00;25.53;;;16.00;;
51985;SDS011;38002;53.296;6.600;2024-03-08T17:31:02;21.67;;;13.57;;
51985;SDS011;38002;53.296;6.600;2024-03-08T17:36:07;28.05;;;15.07;;
51985;SDS011;38002;53.296;6.600;2024-03-08T17:41:11;30.77;;;16.63;;
51985;SDS011;38002;53.296;6.600;2024-03-08T17:46:19;29.15;;;15.95;;
51985;SDS011;38002;53.296;6.600;2024-03-08T17:51:19;29.00;;;16.57;;
51985;SDS011;38002;53.296;6.600;2024-03-08T17:56:20;28.70;;;16.23;;
51985;SDS011;38002;53.296;6.600;2024-03-08T18:01:20;25.60;;;15.43;;
51985;SDS011;38002;53.296;6.600;2024-03-08T18:06:21;32.00;;;15.57;;
51985;SDS011;38002;53.296;6.600;2024-03-08T18:11:24;28.60;;;15.90;;
51985;SDS011;38002;53.296;6.600;2024-03-08T18:16:24;26.30;;;15.27;;
51985;SDS011;38002;53.296;6.600;2024-03-08T18:21:25;30.55;;;15.93;;
51985;SDS011;38002;53.296;6.600;2024-03-08T18:26:25;29.83;;;16.50;;
51985;SDS011;38002;53.296;6.600;2024-03-08T18:31:26;28.67;;;16.03;;
51985;SDS011;38002;53.296;6.600;2024-03-08T18:36:27;32.10;;;17.33;;
51985;SDS011;38002;53.296;6.600;2024-03-08T18:41:30;32.05;;;16.73;;
51985;SDS011;38002;53.296;6.600;2024-03-08T18:46:34;29.65;;;17.25;;
51985;SDS011;38002;53.296;6.600;2024-03-08T18:51:35;26.83;;;16.48;;
51985;SDS011;38002;53.296;6.600;2024-03-08T18:56:36;26.23;;;15.77;;
51985;SDS011;38002;53.296;6.600;2024-03-08T19:01:39;26.80;;;15.57;;
51985;SDS011;38002;53.296;6.600;2024-03-08T19:06:41;31.05;;;15.60;;
51985;SDS011;38002;53.296;6.600;2024-03-08T19:11:42;26.63;;;14.98;;
51985;SDS011;38002;53.296;6.600;2024-03-08T19:16:43;21.87;;;14.00;;
51985;SDS011;38002;53.296;6.600;2024-03-08T19:21:45;25.00;;;15.68;;
51985;SDS011;38002;53.296;6.600;2024-03-08T19:26:45;24.67;;;15.47;;
51985;SDS011;38002;53.296;6.600;2024-03-08T19:31:46;29.93;;;15.97;;
51985;SDS011;38002;53.296;6.600;2024-03-08T19:36:47;24.83;;;15.65;;
51985;SDS011;38002;53.296;6.600;2024-03-08T19:41:48;30.05;;;16.50;;
51985;SDS011;38002;53.296;6.600;2024-03-08T19:46:49;23.97;;;15.23;;
51985;SDS011;38002;53.296;6.600;2024-03-08T19:51:49;31.05;;;16.65;;
51985;SDS011;38002;53.296;6.600;2024-03-08T19:56:49;27.40;;;15.53;;
51985;SDS011;38002;53.296;6.600;2024-03-08T20:06:52;27.08;;;14.93;;
51985;SDS011;38002;53.296;6.600;2024-03-08T20:11:52;30.73;;;14.73;;
51985;SDS011;38002;53.296;6.600;2024-03-08T20:16:53;27.43;;;16.20;;
51985;SDS011;38002;53.296;6.600;2024-03-08T20:21:54;36.30;;;15.33;;
51985;SDS011;38002;53.296;6.600;2024-03-08T20:26:54;28.20;;;14.57;;
51985;SDS011;38002;53.296;6.600;2024-03-08T20:31:55;24.93;;;14.70;;
51985;SDS011;38002;53.296;6.600;2024-03-08T20:36:55;27.30;;;15.07;;
51985;SDS011;38002;53.296;6.600;2024-03-08T20:41:55;28.83;;;14.93;;
51985;SDS011;38002;53.296;6.600;2024-03-08T20:46:56;26.90;;;15.73;;
51985;SDS011;38002;53.296;6.600;2024-03-08T20:51:57;28.48;;;14.77;;
51985;SDS011;38002;53.296;6.600;2024-03-08T20:57:00;36.15;;;16.83;;
51985;SDS011;38002;53.296;6.600;2024-03-08T21:02:01;29.48;;;15.07;;
51985;SDS011;38002;53.296;6.600;2024-03-08T21:07:01;25.85;;;14.93;;
51985;SDS011;38002;53.296;6.600;2024-03-08T21:12:04;24.85;;;15.88;;
51985;SDS011;38002;53.296;6.600;2024-03-08T21:17:06;25.30;;;15.32;;
51985;SDS011;38002;53.296;6.600;2024-03-08T21:22:07;31.27;;;15.93;;
51985;SDS011;38002;53.296;6.600;2024-03-08T21:27:07;26.93;;;16.10;;
51985;SDS011;38002;53.296;6.600;2024-03-08T21:32:08;29.37;;;16.03;;
51985;SDS011;38002;53.296;6.600;2024-03-08T21:37:08;26.77;;;15.07;;
51985;SDS011;38002;53.296;6.600;2024-03-08T21:42:11;24.35;;;14.18;;
51985;SDS011;38002;53.296;6.600;2024-03-08T21:47:13;23.92;;;14.45;;
51985;SDS011;38002;53.296;6.600;2024-03-08T21:52:14;31.88;;;15.52;;
51985;SDS011;38002;53.296;6.600;2024-03-08T21:57:15;32.13;;;15.43;;
51985;SDS011;38002;53.296;6.600;2024-03-08T22:02:19;31.20;;;15.20;;
51985;SDS011;38002;53.296;6.600;2024-03-08T22:07:19;28.30;;;15.20;;
51985;SDS011;38002;53.296;6.600;2024-03-08T22:12:20;33.67;;;15.43;;
51985;SDS011;38002;53.296;6.600;2024-03-08T22:17:20;26.07;;;13.90;;
51985;SDS011;38002;53.296;6.600;2024-03-08T22:22:24;30.33;;;14.63;;
51985;SDS011;38002;53.296;6.600;2024-03-08T22:27:24;25.90;;;13.30;;
51985;SDS011;38002;53.296;6.600;2024-03-08T22:32:25;25.13;;;14.33;;
51985;SDS011;38002;53.296;6.600;2024-03-08T22:37:25;26.93;;;14.10;;
51985;SDS011;38002;53.296;6.600;2024-03-08T22:42:26;28.10;;;15.33;;
51985;SDS011;38002;53.296;6.600;2024-03-08T22:47:27;28.95;;;13.65;;
51985;SDS011;38002;53.296;6.600;2024-03-08T22:52:27;27.17;;;13.53;;
51985;SDS011;38002;53.296;6.600;2024-03-08T22:57:28;25.27;;;13.53;;
51985;SDS011;38002;53.296;6.600;2024-03-08T23:02:28;25.33;;;14.07;;
51985;SDS011;38002;53.296;6.600;2024-03-08T23:07:31;28.42;;;15.43;;
51985;SDS011;38002;53.296;6.600;2024-03-08T23:12:31;30.10;;;14.03;;
51985;SDS011;38002;53.296;6.600;2024-03-08T23:22:34;24.88;;;13.45;;
51985;SDS011;38002;53.296;6.600;2024-03-08T23:27:34;25.83;;;13.87;;
51985;SDS011;38002;53.296;6.600;2024-03-08T23:32:35;29.50;;;14.13;;
51985;SDS011;38002;53.296;6.600;2024-03-08T23:37:35;26.10;;;13.50;;
51985;SDS011;38002;53.296;6.600;2024-03-08T23:42:36;25.67;;;13.53;;
51985;SDS011;38002;53.296;6.600;2024-03-08T23:47:47;23.90;;;14.33;;
51985;SDS011;38002;53.296;6.600;2024-03-08T23:52:55;27.08;;;14.32;;
51985;SDS011;38002;53.296;6.600;2024-03-08T23:57:59;32.80;;;14.52;;
